<?xml version="1.0" encoding="UTF-8" standalone="no" ?>
<gpx xmlns="http://www.topografix.com/GPX/1/1" xmlns:xsi="http://www.w3.org/2001/XMLSchema-instance" xsi:schemaLocation="http://www.topografix.com/GPX/1/1 http://www.topografix.com/GPX/1/1/gpx.xsd" version="1.1" creator="VisuGPX - https://www.visugpx.com">
  <metadata>
    <name>46-Pradines-Flaynac</name>
    <desc><![CDATA[Randonnée d'environ 10Km au départ de Pradines. Chemin en grande partie aux bords du Lot, sans difficulté.]]></desc>
  </metadata>
  <trk>
    <name><![CDATA[OR-6919201--Pradines:Stade de Pradines Flaynac ]]></name>
    <trkseg>
      <trkpt lat="44.48397" lon="1.40539">
        <ele>116</ele>
        <time>2017-01-07T17:45:28Z</time>
      </trkpt>
      <trkpt lat="44.4843" lon="1.40535">
        <ele>117</ele>
        <time>2017-01-07T17:47:28Z</time>
      </trkpt>
      <trkpt lat="44.48456" lon="1.40587">
        <ele>118</ele>
        <time>2017-01-07T17:49:28Z</time>
      </trkpt>
      <trkpt lat="44.4847" lon="1.40662">
        <ele>118</ele>
        <time>2017-01-07T17:51:28Z</time>
      </trkpt>
      <trkpt lat="44.48485" lon="1.40705">
        <ele>118</ele>
        <time>2017-01-07T17:53:28Z</time>
      </trkpt>
      <trkpt lat="44.48492" lon="1.40745">
        <ele>116</ele>
        <time>2017-01-07T17:55:28Z</time>
      </trkpt>
      <trkpt lat="44.48496" lon="1.40784">
        <ele>115</ele>
        <time>2017-01-07T17:57:28Z</time>
      </trkpt>
      <trkpt lat="44.4856" lon="1.40745">
        <ele>115</ele>
        <time>2017-01-07T17:59:28Z</time>
      </trkpt>
      <trkpt lat="44.48658" lon="1.40677">
        <ele>114</ele>
        <time>2017-01-07T18:01:28Z</time>
      </trkpt>
      <trkpt lat="44.4872" lon="1.40653">
        <ele>113</ele>
        <time>2017-01-07T18:03:28Z</time>
      </trkpt>
      <trkpt lat="44.48784" lon="1.4063">
        <ele>113</ele>
        <time>2017-01-07T18:05:28Z</time>
      </trkpt>
      <trkpt lat="44.48862" lon="1.40593">
        <ele>113</ele>
        <time>2017-01-07T18:07:28Z</time>
      </trkpt>
      <trkpt lat="44.48929" lon="1.40554">
        <ele>113</ele>
        <time>2017-01-07T18:09:28Z</time>
      </trkpt>
      <trkpt lat="44.49011" lon="1.40516">
        <ele>113</ele>
        <time>2017-01-07T18:11:28Z</time>
      </trkpt>
      <trkpt lat="44.4907" lon="1.40484">
        <ele>112</ele>
        <time>2017-01-07T18:13:28Z</time>
      </trkpt>
      <trkpt lat="44.49121" lon="1.40443">
        <ele>112</ele>
        <time>2017-01-07T18:15:28Z</time>
      </trkpt>
      <trkpt lat="44.49161" lon="1.40394">
        <ele>112</ele>
        <time>2017-01-07T18:17:28Z</time>
      </trkpt>
      <trkpt lat="44.4919" lon="1.40327">
        <ele>112</ele>
        <time>2017-01-07T18:19:28Z</time>
      </trkpt>
      <trkpt lat="44.49219" lon="1.40215">
        <ele>112</ele>
        <time>2017-01-07T18:21:28Z</time>
      </trkpt>
      <trkpt lat="44.49243" lon="1.40127">
        <ele>112</ele>
        <time>2017-01-07T18:23:28Z</time>
      </trkpt>
      <trkpt lat="44.49272" lon="1.40046">
        <ele>112</ele>
        <time>2017-01-07T18:25:28Z</time>
      </trkpt>
      <trkpt lat="44.49301" lon="1.39975">
        <ele>113</ele>
        <time>2017-01-07T18:27:28Z</time>
      </trkpt>
      <trkpt lat="44.49333" lon="1.39879">
        <ele>113</ele>
        <time>2017-01-07T18:29:28Z</time>
      </trkpt>
      <trkpt lat="44.49356" lon="1.39791">
        <ele>113</ele>
        <time>2017-01-07T18:31:28Z</time>
      </trkpt>
      <trkpt lat="44.49375" lon="1.39733">
        <ele>113</ele>
        <time>2017-01-07T18:33:28Z</time>
      </trkpt>
      <trkpt lat="44.49389" lon="1.39655">
        <ele>113</ele>
        <time>2017-01-07T18:35:28Z</time>
      </trkpt>
      <trkpt lat="44.4939" lon="1.39591">
        <ele>114</ele>
        <time>2017-01-07T18:37:28Z</time>
      </trkpt>
      <trkpt lat="44.49379" lon="1.3955">
        <ele>112</ele>
        <time>2017-01-07T18:39:28Z</time>
      </trkpt>
      <trkpt lat="44.49356" lon="1.39507">
        <ele>110</ele>
        <time>2017-01-07T18:41:28Z</time>
      </trkpt>
      <trkpt lat="44.49327" lon="1.39469">
        <ele>111</ele>
        <time>2017-01-07T18:43:28Z</time>
      </trkpt>
      <trkpt lat="44.49289" lon="1.39445">
        <ele>113</ele>
        <time>2017-01-07T18:45:28Z</time>
      </trkpt>
      <trkpt lat="44.49281" lon="1.39394">
        <ele>113</ele>
        <time>2017-01-07T18:47:28Z</time>
      </trkpt>
      <trkpt lat="44.49269" lon="1.39321">
        <ele>112</ele>
        <time>2017-01-07T18:49:28Z</time>
      </trkpt>
      <trkpt lat="44.4926" lon="1.3925">
        <ele>114</ele>
        <time>2017-01-07T18:51:28Z</time>
      </trkpt>
      <trkpt lat="44.49239" lon="1.39164">
        <ele>116</ele>
        <time>2017-01-07T18:53:28Z</time>
      </trkpt>
      <trkpt lat="44.49219" lon="1.39095">
        <ele>115</ele>
        <time>2017-01-07T18:55:28Z</time>
      </trkpt>
      <trkpt lat="44.49196" lon="1.39037">
        <ele>113</ele>
        <time>2017-01-07T18:57:28Z</time>
      </trkpt>
      <trkpt lat="44.49147" lon="1.39063">
        <ele>112</ele>
        <time>2017-01-07T18:59:28Z</time>
      </trkpt>
      <trkpt lat="44.49086" lon="1.39095">
        <ele>114</ele>
        <time>2017-01-07T19:01:28Z</time>
      </trkpt>
      <trkpt lat="44.49027" lon="1.39134">
        <ele>117</ele>
        <time>2017-01-07T19:03:28Z</time>
      </trkpt>
      <trkpt lat="44.48974" lon="1.39162">
        <ele>118</ele>
        <time>2017-01-07T19:05:28Z</time>
      </trkpt>
      <trkpt lat="44.48926" lon="1.39183">
        <ele>119</ele>
        <time>2017-01-07T19:07:28Z</time>
      </trkpt>
      <trkpt lat="44.4888" lon="1.39196">
        <ele>119</ele>
        <time>2017-01-07T19:09:28Z</time>
      </trkpt>
      <trkpt lat="44.48839" lon="1.39211">
        <ele>119</ele>
        <time>2017-01-07T19:11:28Z</time>
      </trkpt>
      <trkpt lat="44.48799" lon="1.39216">
        <ele>119</ele>
        <time>2017-01-07T19:13:28Z</time>
      </trkpt>
      <trkpt lat="44.4873" lon="1.3922">
        <ele>121</ele>
        <time>2017-01-07T19:15:28Z</time>
      </trkpt>
      <trkpt lat="44.48681" lon="1.39235">
        <ele>123</ele>
        <time>2017-01-07T19:17:28Z</time>
      </trkpt>
      <trkpt lat="44.48639" lon="1.39228">
        <ele>124</ele>
        <time>2017-01-07T19:19:28Z</time>
      </trkpt>
      <trkpt lat="44.48643" lon="1.39183">
        <ele>120</ele>
        <time>2017-01-07T19:21:28Z</time>
      </trkpt>
      <trkpt lat="44.48628" lon="1.3914">
        <ele>118</ele>
        <time>2017-01-07T19:23:28Z</time>
      </trkpt>
      <trkpt lat="44.48605" lon="1.39091">
        <ele>116</ele>
        <time>2017-01-07T19:25:28Z</time>
      </trkpt>
      <trkpt lat="44.48588" lon="1.39048">
        <ele>115</ele>
        <time>2017-01-07T19:27:28Z</time>
      </trkpt>
      <trkpt lat="44.48564" lon="1.38992">
        <ele>115</ele>
        <time>2017-01-07T19:29:28Z</time>
      </trkpt>
      <trkpt lat="44.48539" lon="1.38941">
        <ele>113</ele>
        <time>2017-01-07T19:31:28Z</time>
      </trkpt>
      <trkpt lat="44.48511" lon="1.38877">
        <ele>112</ele>
        <time>2017-01-07T19:33:28Z</time>
      </trkpt>
      <trkpt lat="44.48489" lon="1.38834">
        <ele>110</ele>
        <time>2017-01-07T19:35:28Z</time>
      </trkpt>
      <trkpt lat="44.48469" lon="1.38791">
        <ele>109</ele>
        <time>2017-01-07T19:37:28Z</time>
      </trkpt>
      <trkpt lat="44.48435" lon="1.38793">
        <ele>109</ele>
        <time>2017-01-07T19:39:28Z</time>
      </trkpt>
      <trkpt lat="44.48409" lon="1.38806">
        <ele>109</ele>
        <time>2017-01-07T19:41:28Z</time>
      </trkpt>
      <trkpt lat="44.48368" lon="1.38836">
        <ele>109</ele>
        <time>2017-01-07T19:43:28Z</time>
      </trkpt>
      <trkpt lat="44.48319" lon="1.38859">
        <ele>112</ele>
        <time>2017-01-07T19:45:28Z</time>
      </trkpt>
      <trkpt lat="44.48282" lon="1.38877">
        <ele>116</ele>
        <time>2017-01-07T19:47:28Z</time>
      </trkpt>
      <trkpt lat="44.48225" lon="1.38887">
        <ele>118</ele>
        <time>2017-01-07T19:49:28Z</time>
      </trkpt>
      <trkpt lat="44.48175" lon="1.38887">
        <ele>118</ele>
        <time>2017-01-07T19:51:28Z</time>
      </trkpt>
      <trkpt lat="44.48118" lon="1.38842">
        <ele>122</ele>
        <time>2017-01-07T19:53:28Z</time>
      </trkpt>
      <trkpt lat="44.48077" lon="1.38799">
        <ele>123</ele>
        <time>2017-01-07T19:55:28Z</time>
      </trkpt>
      <trkpt lat="44.48025" lon="1.38756">
        <ele>126</ele>
        <time>2017-01-07T19:57:28Z</time>
      </trkpt>
      <trkpt lat="44.47992" lon="1.38726">
        <ele>127</ele>
        <time>2017-01-07T19:59:28Z</time>
      </trkpt>
      <trkpt lat="44.47962" lon="1.38696">
        <ele>128</ele>
        <time>2017-01-07T20:01:28Z</time>
      </trkpt>
      <trkpt lat="44.4793" lon="1.38664">
        <ele>129</ele>
        <time>2017-01-07T20:03:28Z</time>
      </trkpt>
      <trkpt lat="44.47885" lon="1.38602">
        <ele>128</ele>
        <time>2017-01-07T20:05:28Z</time>
      </trkpt>
      <trkpt lat="44.4785" lon="1.38535">
        <ele>128</ele>
        <time>2017-01-07T20:07:28Z</time>
      </trkpt>
      <trkpt lat="44.47819" lon="1.38469">
        <ele>126</ele>
        <time>2017-01-07T20:09:28Z</time>
      </trkpt>
      <trkpt lat="44.47792" lon="1.38407">
        <ele>127</ele>
        <time>2017-01-07T20:11:28Z</time>
      </trkpt>
      <trkpt lat="44.4776" lon="1.3834">
        <ele>127</ele>
        <time>2017-01-07T20:13:28Z</time>
      </trkpt>
      <trkpt lat="44.4774" lon="1.38295">
        <ele>127</ele>
        <time>2017-01-07T20:15:28Z</time>
      </trkpt>
      <trkpt lat="44.47738" lon="1.38222">
        <ele>123</ele>
        <time>2017-01-07T20:17:28Z</time>
      </trkpt>
      <trkpt lat="44.47732" lon="1.3816">
        <ele>125</ele>
        <time>2017-01-07T20:19:28Z</time>
      </trkpt>
      <trkpt lat="44.47725" lon="1.38098">
        <ele>127</ele>
        <time>2017-01-07T20:21:28Z</time>
      </trkpt>
      <trkpt lat="44.47729" lon="1.38033">
        <ele>126</ele>
        <time>2017-01-07T20:23:28Z</time>
      </trkpt>
      <trkpt lat="44.47738" lon="1.3796">
        <ele>123</ele>
        <time>2017-01-07T20:25:28Z</time>
      </trkpt>
      <trkpt lat="44.47738" lon="1.37881">
        <ele>120</ele>
        <time>2017-01-07T20:27:28Z</time>
      </trkpt>
      <trkpt lat="44.47728" lon="1.3781">
        <ele>119</ele>
        <time>2017-01-07T20:29:28Z</time>
      </trkpt>
      <trkpt lat="44.47732" lon="1.37731">
        <ele>119</ele>
        <time>2017-01-07T20:31:28Z</time>
      </trkpt>
      <trkpt lat="44.47766" lon="1.37683">
        <ele>114</ele>
        <time>2017-01-07T20:33:28Z</time>
      </trkpt>
      <trkpt lat="44.4777" lon="1.37628">
        <ele>114</ele>
        <time>2017-01-07T20:35:28Z</time>
      </trkpt>
      <trkpt lat="44.47752" lon="1.37542">
        <ele>117</ele>
        <time>2017-01-07T20:37:28Z</time>
      </trkpt>
      <trkpt lat="44.47729" lon="1.37465">
        <ele>115</ele>
        <time>2017-01-07T20:39:28Z</time>
      </trkpt>
      <trkpt lat="44.47697" lon="1.37411">
        <ele>112</ele>
        <time>2017-01-07T20:41:28Z</time>
      </trkpt>
      <trkpt lat="44.47677" lon="1.37372">
        <ele>111</ele>
        <time>2017-01-07T20:43:28Z</time>
      </trkpt>
      <trkpt lat="44.47643" lon="1.37321">
        <ele>110</ele>
        <time>2017-01-07T20:45:28Z</time>
      </trkpt>
      <trkpt lat="44.47616" lon="1.37314">
        <ele>110</ele>
        <time>2017-01-07T20:47:28Z</time>
      </trkpt>
      <trkpt lat="44.47604" lon="1.37364">
        <ele>111</ele>
        <time>2017-01-07T20:49:28Z</time>
      </trkpt>
      <trkpt lat="44.47581" lon="1.374">
        <ele>113</ele>
        <time>2017-01-07T20:51:28Z</time>
      </trkpt>
      <trkpt lat="44.47553" lon="1.3745">
        <ele>115</ele>
        <time>2017-01-07T20:53:28Z</time>
      </trkpt>
      <trkpt lat="44.47521" lon="1.37499">
        <ele>117</ele>
        <time>2017-01-07T20:55:28Z</time>
      </trkpt>
      <trkpt lat="44.47481" lon="1.37535">
        <ele>116</ele>
        <time>2017-01-07T20:57:28Z</time>
      </trkpt>
      <trkpt lat="44.47426" lon="1.37589">
        <ele>114</ele>
        <time>2017-01-07T20:59:28Z</time>
      </trkpt>
      <trkpt lat="44.47375" lon="1.37634">
        <ele>112</ele>
        <time>2017-01-07T21:01:28Z</time>
      </trkpt>
      <trkpt lat="44.47398" lon="1.37686">
        <ele>113</ele>
        <time>2017-01-07T21:03:28Z</time>
      </trkpt>
      <trkpt lat="44.47405" lon="1.37756">
        <ele>114</ele>
        <time>2017-01-07T21:05:28Z</time>
      </trkpt>
      <trkpt lat="44.47395" lon="1.37819">
        <ele>119</ele>
        <time>2017-01-07T21:07:28Z</time>
      </trkpt>
      <trkpt lat="44.47375" lon="1.37864">
        <ele>123</ele>
        <time>2017-01-07T21:09:28Z</time>
      </trkpt>
      <trkpt lat="44.474" lon="1.3795">
        <ele>129</ele>
        <time>2017-01-07T21:11:28Z</time>
      </trkpt>
      <trkpt lat="44.47421" lon="1.38033">
        <ele>132</ele>
        <time>2017-01-07T21:13:28Z</time>
      </trkpt>
      <trkpt lat="44.47438" lon="1.38121">
        <ele>139</ele>
        <time>2017-01-07T21:15:28Z</time>
      </trkpt>
      <trkpt lat="44.47466" lon="1.38226">
        <ele>145</ele>
        <time>2017-01-07T21:17:28Z</time>
      </trkpt>
      <trkpt lat="44.47486" lon="1.38321">
        <ele>147</ele>
        <time>2017-01-07T21:19:28Z</time>
      </trkpt>
      <trkpt lat="44.47496" lon="1.38383">
        <ele>150</ele>
        <time>2017-01-07T21:21:28Z</time>
      </trkpt>
      <trkpt lat="44.47487" lon="1.38441">
        <ele>157</ele>
        <time>2017-01-07T21:23:28Z</time>
      </trkpt>
      <trkpt lat="44.47501" lon="1.38499">
        <ele>161</ele>
        <time>2017-01-07T21:25:28Z</time>
      </trkpt>
      <trkpt lat="44.47513" lon="1.38555">
        <ele>159</ele>
        <time>2017-01-07T21:27:28Z</time>
      </trkpt>
      <trkpt lat="44.47526" lon="1.38621">
        <ele>158</ele>
        <time>2017-01-07T21:29:28Z</time>
      </trkpt>
      <trkpt lat="44.47562" lon="1.38668">
        <ele>158</ele>
        <time>2017-01-07T21:31:28Z</time>
      </trkpt>
      <trkpt lat="44.47608" lon="1.38716">
        <ele>156</ele>
        <time>2017-01-07T21:33:28Z</time>
      </trkpt>
      <trkpt lat="44.47636" lon="1.38769">
        <ele>158</ele>
        <time>2017-01-07T21:35:28Z</time>
      </trkpt>
      <trkpt lat="44.47686" lon="1.38829">
        <ele>158</ele>
        <time>2017-01-07T21:37:28Z</time>
      </trkpt>
      <trkpt lat="44.47738" lon="1.38877">
        <ele>156</ele>
        <time>2017-01-07T21:39:28Z</time>
      </trkpt>
      <trkpt lat="44.47795" lon="1.38907">
        <ele>154</ele>
        <time>2017-01-07T21:41:28Z</time>
      </trkpt>
      <trkpt lat="44.47838" lon="1.38947">
        <ele>152</ele>
        <time>2017-01-07T21:43:28Z</time>
      </trkpt>
      <trkpt lat="44.47865" lon="1.3899">
        <ele>151</ele>
        <time>2017-01-07T21:45:28Z</time>
      </trkpt>
      <trkpt lat="44.47898" lon="1.39027">
        <ele>150</ele>
        <time>2017-01-07T21:47:28Z</time>
      </trkpt>
      <trkpt lat="44.47934" lon="1.39078">
        <ele>148</ele>
        <time>2017-01-07T21:49:28Z</time>
      </trkpt>
      <trkpt lat="44.47979" lon="1.39095">
        <ele>146</ele>
        <time>2017-01-07T21:51:28Z</time>
      </trkpt>
      <trkpt lat="44.48034" lon="1.39089">
        <ele>143</ele>
        <time>2017-01-07T21:53:28Z</time>
      </trkpt>
      <trkpt lat="44.481" lon="1.39074">
        <ele>137</ele>
        <time>2017-01-07T21:55:28Z</time>
      </trkpt>
      <trkpt lat="44.48147" lon="1.39102">
        <ele>131</ele>
        <time>2017-01-07T21:57:28Z</time>
      </trkpt>
      <trkpt lat="44.48155" lon="1.39048">
        <ele>131</ele>
        <time>2017-01-07T21:59:28Z</time>
      </trkpt>
      <trkpt lat="44.48185" lon="1.39042">
        <ele>129</ele>
        <time>2017-01-07T22:01:28Z</time>
      </trkpt>
      <trkpt lat="44.48205" lon="1.39001">
        <ele>129</ele>
        <time>2017-01-07T22:03:28Z</time>
      </trkpt>
      <trkpt lat="44.48222" lon="1.38958">
        <ele>125</ele>
        <time>2017-01-07T22:05:28Z</time>
      </trkpt>
      <trkpt lat="44.48224" lon="1.38904">
        <ele>119</ele>
        <time>2017-01-07T22:07:28Z</time>
      </trkpt>
      <trkpt lat="44.48254" lon="1.38877">
        <ele>117</ele>
        <time>2017-01-07T22:09:28Z</time>
      </trkpt>
      <trkpt lat="44.48317" lon="1.38877">
        <ele>114</ele>
        <time>2017-01-07T22:11:28Z</time>
      </trkpt>
      <trkpt lat="44.48355" lon="1.38851">
        <ele>111</ele>
        <time>2017-01-07T22:13:28Z</time>
      </trkpt>
      <trkpt lat="44.48397" lon="1.38831">
        <ele>109</ele>
        <time>2017-01-07T22:15:28Z</time>
      </trkpt>
      <trkpt lat="44.48429" lon="1.38808">
        <ele>109</ele>
        <time>2017-01-07T22:17:28Z</time>
      </trkpt>
      <trkpt lat="44.48456" lon="1.38776">
        <ele>108</ele>
        <time>2017-01-07T22:19:28Z</time>
      </trkpt>
      <trkpt lat="44.48487" lon="1.38812">
        <ele>109</ele>
        <time>2017-01-07T22:21:28Z</time>
      </trkpt>
      <trkpt lat="44.48507" lon="1.38853">
        <ele>111</ele>
        <time>2017-01-07T22:23:28Z</time>
      </trkpt>
      <trkpt lat="44.4853" lon="1.38902">
        <ele>112</ele>
        <time>2017-01-07T22:25:28Z</time>
      </trkpt>
      <trkpt lat="44.48556" lon="1.38958">
        <ele>114</ele>
        <time>2017-01-07T22:27:28Z</time>
      </trkpt>
      <trkpt lat="44.48583" lon="1.39025">
        <ele>115</ele>
        <time>2017-01-07T22:29:28Z</time>
      </trkpt>
      <trkpt lat="44.48613" lon="1.39072">
        <ele>115</ele>
        <time>2017-01-07T22:31:28Z</time>
      </trkpt>
      <trkpt lat="44.48639" lon="1.39123">
        <ele>117</ele>
        <time>2017-01-07T22:33:28Z</time>
      </trkpt>
      <trkpt lat="44.48657" lon="1.39192">
        <ele>120</ele>
        <time>2017-01-07T22:35:28Z</time>
      </trkpt>
      <trkpt lat="44.48655" lon="1.39239">
        <ele>124</ele>
        <time>2017-01-07T22:37:28Z</time>
      </trkpt>
      <trkpt lat="44.48701" lon="1.39233">
        <ele>122</ele>
        <time>2017-01-07T22:39:28Z</time>
      </trkpt>
      <trkpt lat="44.48724" lon="1.39237">
        <ele>122</ele>
        <time>2017-01-07T22:41:28Z</time>
      </trkpt>
      <trkpt lat="44.48815" lon="1.3922">
        <ele>119</ele>
        <time>2017-01-07T22:43:28Z</time>
      </trkpt>
      <trkpt lat="44.48851" lon="1.39224">
        <ele>119</ele>
        <time>2017-01-07T22:45:28Z</time>
      </trkpt>
      <trkpt lat="44.48838" lon="1.39288">
        <ele>120</ele>
        <time>2017-01-07T22:47:28Z</time>
      </trkpt>
      <trkpt lat="44.4883" lon="1.39396">
        <ele>122</ele>
        <time>2017-01-07T22:49:28Z</time>
      </trkpt>
      <trkpt lat="44.4883" lon="1.39454">
        <ele>122</ele>
        <time>2017-01-07T22:51:28Z</time>
      </trkpt>
      <trkpt lat="44.48828" lon="1.39512">
        <ele>121</ele>
        <time>2017-01-07T22:53:28Z</time>
      </trkpt>
      <trkpt lat="44.48825" lon="1.39563">
        <ele>123</ele>
        <time>2017-01-07T22:55:28Z</time>
      </trkpt>
      <trkpt lat="44.48834" lon="1.39608">
        <ele>123</ele>
        <time>2017-01-07T22:57:28Z</time>
      </trkpt>
      <trkpt lat="44.48821" lon="1.3967">
        <ele>123</ele>
        <time>2017-01-07T22:59:28Z</time>
      </trkpt>
      <trkpt lat="44.48785" lon="1.39746">
        <ele>123</ele>
        <time>2017-01-07T23:01:28Z</time>
      </trkpt>
      <trkpt lat="44.48744" lon="1.39803">
        <ele>124</ele>
        <time>2017-01-07T23:03:28Z</time>
      </trkpt>
      <trkpt lat="44.48721" lon="1.3984">
        <ele>125</ele>
        <time>2017-01-07T23:05:28Z</time>
      </trkpt>
      <trkpt lat="44.48684" lon="1.39883">
        <ele>127</ele>
        <time>2017-01-07T23:07:28Z</time>
      </trkpt>
      <trkpt lat="44.48665" lon="1.39909">
        <ele>127</ele>
        <time>2017-01-07T23:09:28Z</time>
      </trkpt>
      <trkpt lat="44.48635" lon="1.39939">
        <ele>128</ele>
        <time>2017-01-07T23:11:28Z</time>
      </trkpt>
      <trkpt lat="44.4859" lon="1.39977">
        <ele>132</ele>
        <time>2017-01-07T23:13:28Z</time>
      </trkpt>
      <trkpt lat="44.48545" lon="1.40007">
        <ele>134</ele>
        <time>2017-01-07T23:15:28Z</time>
      </trkpt>
      <trkpt lat="44.48522" lon="1.40052">
        <ele>133</ele>
        <time>2017-01-07T23:17:28Z</time>
      </trkpt>
      <trkpt lat="44.48489" lon="1.40085">
        <ele>134</ele>
        <time>2017-01-07T23:19:28Z</time>
      </trkpt>
      <trkpt lat="44.4844" lon="1.40097">
        <ele>135</ele>
        <time>2017-01-07T23:21:28Z</time>
      </trkpt>
      <trkpt lat="44.48403" lon="1.40125">
        <ele>136</ele>
        <time>2017-01-07T23:23:28Z</time>
      </trkpt>
      <trkpt lat="44.48372" lon="1.40166">
        <ele>135</ele>
        <time>2017-01-07T23:25:28Z</time>
      </trkpt>
      <trkpt lat="44.4834" lon="1.40138">
        <ele>136</ele>
        <time>2017-01-07T23:27:28Z</time>
      </trkpt>
      <trkpt lat="44.48306" lon="1.40147">
        <ele>137</ele>
        <time>2017-01-07T23:29:28Z</time>
      </trkpt>
      <trkpt lat="44.48285" lon="1.40188">
        <ele>136</ele>
        <time>2017-01-07T23:31:28Z</time>
      </trkpt>
      <trkpt lat="44.48254" lon="1.40222">
        <ele>135</ele>
        <time>2017-01-07T23:33:28Z</time>
      </trkpt>
      <trkpt lat="44.48224" lon="1.40271">
        <ele>136</ele>
        <time>2017-01-07T23:35:28Z</time>
      </trkpt>
      <trkpt lat="44.48192" lon="1.40333">
        <ele>138</ele>
        <time>2017-01-07T23:37:28Z</time>
      </trkpt>
      <trkpt lat="44.48143" lon="1.40391">
        <ele>139</ele>
        <time>2017-01-07T23:39:28Z</time>
      </trkpt>
      <trkpt lat="44.48083" lon="1.40443">
        <ele>136</ele>
        <time>2017-01-07T23:41:28Z</time>
      </trkpt>
      <trkpt lat="44.48034" lon="1.40443">
        <ele>134</ele>
        <time>2017-01-07T23:43:28Z</time>
      </trkpt>
      <trkpt lat="44.48003" lon="1.40445">
        <ele>133</ele>
        <time>2017-01-07T23:45:28Z</time>
      </trkpt>
      <trkpt lat="44.47989" lon="1.40394">
        <ele>135</ele>
        <time>2017-01-07T23:47:28Z</time>
      </trkpt>
      <trkpt lat="44.47979" lon="1.40432">
        <ele>133</ele>
        <time>2017-01-07T23:49:28Z</time>
      </trkpt>
      <trkpt lat="44.4797" lon="1.40488">
        <ele>128</ele>
        <time>2017-01-07T23:51:28Z</time>
      </trkpt>
      <trkpt lat="44.47963" lon="1.40533">
        <ele>124</ele>
        <time>2017-01-07T23:53:28Z</time>
      </trkpt>
      <trkpt lat="44.48023" lon="1.40563">
        <ele>118</ele>
        <time>2017-01-07T23:55:28Z</time>
      </trkpt>
      <trkpt lat="44.4808" lon="1.4058">
        <ele>113</ele>
        <time>2017-01-07T23:57:28Z</time>
      </trkpt>
      <trkpt lat="44.48139" lon="1.40576">
        <ele>113</ele>
        <time>2017-01-07T23:59:28Z</time>
      </trkpt>
      <trkpt lat="44.48193" lon="1.40559">
        <ele>115</ele>
        <time>2017-01-08T00:01:28Z</time>
      </trkpt>
      <trkpt lat="44.4825" lon="1.40544">
        <ele>115</ele>
        <time>2017-01-08T00:03:28Z</time>
      </trkpt>
      <trkpt lat="44.48308" lon="1.40529">
        <ele>114</ele>
        <time>2017-01-08T00:05:28Z</time>
      </trkpt>
      <trkpt lat="44.48357" lon="1.40537">
        <ele>114</ele>
        <time>2017-01-08T00:07:28Z</time>
      </trkpt>
      <trkpt lat="44.48429" lon="1.40518">
        <ele>117</ele>
        <time>2017-01-08T00:09:28Z</time>
      </trkpt>
    </trkseg>
  </trk>
</gpx>